Kezdőlap
METAR-TAF:

METAR-TAF

Repülőterek :

Moline, Illinois, Amerikai Egyesült Államok

földrajzi szélesség: 41-27-05N, földrajzi hosszúság: 090-30-53W, magasság: 179 m

Jelenlegi meteorológiai megfigyelések

A jelentés 10 perccel ezelõtt készült, 08:52 UTC
Nyugat-délnyugati szél 3 kt
Hőmérséklet -6°C
Páratartalom 68%
Légköri nyomás 1020 hPa
Látótávolság: 16.1 km
Derült ég

METAR: KMLI 270852Z AUTO 24003KT 10SM CLR M06/M11 A3013 RMK AO2 SLP211 T10561106 58015

Idő: 03:02 (09:02 UTC)

Előrejelzés

A jelentés 3 órával és 42 perccel ezelõtt készült, 05:20 UTC
Az előrejelzés 27-én 06 óra UTC és 28-én 06 óra UTC között érvényes
Északnyugati szél 9 kt
Látótávolság: 10 km
Szakadozott felhőzet 5000 lábon
27-én 1500 órától UTC szerint
Nyugat-északnyugati szél 6 kt
Látótávolság: 10 km
Szakadozott felhőzet 10000 lábon

TAF: KMLI 270520Z 2706/2806 31009KT P6SM BKN050 FM271500 29006KT P6SM BKN100

Meteorológiai megfigyelések és előrejelzések több, mint 4000 repülőtéren (METAR és TAF jelentéseket).

A térképen piros és sárga pontok jelzik az elérhető meteorológiai állomásokat.

Mozgassa az egeret a pont fölött, hogy megjelenjen az állomás neve.

Azután kattintson az időjárási megfigyelések és előrejelzések megtekintéséhez.

A térkép megváltoztatása: kattintson a fekete keresztel jelölt zöld gombra ráközelítéshez, a vonallal jelölt zöld gombra távolításhoz, vagy a zöld nyilakra a szomszédos térképek eléréséhez.


METAR-TAF: